sensor_id;sensor_type;location;lat;lon;timestamp;temperature;humidity
12841;DHT22;6487;48.626;12.486;2023-06-26T00:00:24;19.00;97.60
12841;DHT22;6487;48.626;12.486;2023-06-26T00:02:53;19.00;98.00
12841;DHT22;6487;48.626;12.486;2023-06-26T00:05:21;19.00;97.80
12841;DHT22;6487;48.626;12.486;2023-06-26T00:07:50;18.80;98.00
12841;DHT22;6487;48.626;12.486;2023-06-26T00:10:23;18.70;98.40
12841;DHT22;6487;48.626;12.486;2023-06-26T00:12:54;18.60;98.50
12841;DHT22;6487;48.626;12.486;2023-06-26T00:15:27;18.60;98.90
12841;DHT22;6487;48.626;12.486;2023-06-26T00:17:58;18.70;98.60
12841;DHT22;6487;48.626;12.486;2023-06-26T00:20:26;18.50;99.20
12841;DHT22;6487;48.626;12.486;2023-06-26T00:22:55;18.60;99.50
12841;DHT22;6487;48.626;12.486;2023-06-26T00:25:30;18.70;99.90
12841;DHT22;6487;48.626;12.486;2023-06-26T00:27:58;18.70;99.40
12841;DHT22;6487;48.626;12.486;2023-06-26T00:30:28;18.60;99.70
12841;DHT22;6487;48.626;12.486;2023-06-26T00:32:56;18.60;99.60
12841;DHT22;6487;48.626;12.486;2023-06-26T00:35:25;18.60;99.70
12841;DHT22;6487;48.626;12.486;2023-06-26T00:37:53;18.60;99.60
12841;DHT22;6487;48.626;12.486;2023-06-26T00:40:22;18.60;99.40
12841;DHT22;6487;48.626;12.486;2023-06-26T00:42:50;18.50;99.20
12841;DHT22;6487;48.626;12.486;2023-06-26T00:45:19;18.50;99.40
12841;DHT22;6487;48.626;12.486;2023-06-26T00:48:01;18.40;99.40
12841;DHT22;6487;48.626;12.486;2023-06-26T00:50:30;18.40;99.60
12841;DHT22;6487;48.626;12.486;2023-06-26T00:52:59;18.40;99.40
12841;DHT22;6487;48.626;12.486;2023-06-26T00:55:30;18.40;99.90
12841;DHT22;6487;48.626;12.486;2023-06-26T00:57:59;18.30;99.90
12841;DHT22;6487;48.626;12.486;2023-06-26T01:00:27;18.30;99.90
12841;DHT22;6487;48.626;12.486;2023-06-26T01:02:55;18.20;99.90
12841;DHT22;6487;48.626;12.486;2023-06-26T01:05:28;18.30;99.90
12841;DHT22;6487;48.626;12.486;2023-06-26T01:07:57;18.20;99.90
12841;DHT22;6487;48.626;12.486;2023-06-26T01:10:26;18.30;99.90
12841;DHT22;6487;48.626;12.486;2023-06-26T01:12:56;18.20;99.90
12841;DHT22;6487;48.626;12.486;2023-06-26T01:15:25;18.20;99.90
12841;DHT22;6487;48.626;12.486;2023-06-26T01:17:57;18.20;99.90
12841;DHT22;6487;48.626;12.486;2023-06-26T01:20:28;18.10;99.90
12841;DHT22;6487;48.626;12.486;2023-06-26T01:23:05;18.10;99.90
12841;DHT22;6487;48.626;12.486;2023-06-26T01:25:55;18.10;99.90
12841;DHT22;6487;48.626;12.486;2023-06-26T01:28:32;18.10;99.90
12841;DHT22;6487;48.626;12.486;2023-06-26T01:31:02;18.00;99.90
12841;DHT22;6487;48.626;12.486;2023-06-26T01:33:34;17.90;99.90
12841;DHT22;6487;48.626;12.486;2023-06-26T01:36:03;17.90;99.90
12841;DHT22;6487;48.626;12.486;2023-06-26T01:38:32;17.90;99.90
12841;DHT22;6487;48.626;12.486;2023-06-26T01:41:02;17.90;99.90
12841;DHT22;6487;48.626;12.486;2023-06-26T01:43:37;17.90;99.90
12841;DHT22;6487;48.626;12.486;2023-06-26T01:46:11;17.90;99.90
12841;DHT22;6487;48.626;12.486;2023-06-26T01:48:51;17.90;99.90
12841;DHT22;6487;48.626;12.486;2023-06-26T01:51:30;17.80;99.90
12841;DHT22;6487;48.626;12.486;2023-06-26T01:54:01;17.80;99.90
12841;DHT22;6487;48.626;12.486;2023-06-26T01:56:31;17.80;99.90
12841;DHT22;6487;48.626;12.486;2023-06-26T01:59:02;17.70;99.90
12841;DHT22;6487;48.626;12.486;2023-06-26T02:01:32;17.70;99.90
12841;DHT22;6487;48.626;12.486;2023-06-26T02:04:03;17.70;99.90
12841;DHT22;6487;48.626;12.486;2023-06-26T02:06:31;17.60;99.90
12841;DHT22;6487;48.626;12.486;2023-06-26T02:08:59;17.60;99.90
12841;DHT22;6487;48.626;12.486;2023-06-26T02:11:29;17.60;99.90
12841;DHT22;6487;48.626;12.486;2023-06-26T02:13:57;17.50;99.90
12841;DHT22;6487;48.626;12.486;2023-06-26T02:16:27;17.50;99.90
12841;DHT22;6487;48.626;12.486;2023-06-26T02:18:55;17.50;99.90
12841;DHT22;6487;48.626;12.486;2023-06-26T02:21:24;17.20;99.90
12841;DHT22;6487;48.626;12.486;2023-06-26T02:23:52;17.30;99.90
12841;DHT22;6487;48.626;12.486;2023-06-26T02:26:21;17.30;99.90
12841;DHT22;6487;48.626;12.486;2023-06-26T02:28:49;17.30;99.90
12841;DHT22;6487;48.626;12.486;2023-06-26T02:31:17;17.30;99.90
12841;DHT22;6487;48.626;12.486;2023-06-26T02:33:47;17.30;99.90
12841;DHT22;6487;48.626;12.486;2023-06-26T02:36:16;17.20;99.90
12841;DHT22;6487;48.626;12.486;2023-06-26T02:38:44;17.20;99.90
12841;DHT22;6487;48.626;12.486;2023-06-26T02:41:16;17.30;99.90
12841;DHT22;6487;48.626;12.486;2023-06-26T02:43:44;17.20;99.90
12841;DHT22;6487;48.626;12.486;2023-06-26T02:46:12;17.00;99.90
12841;DHT22;6487;48.626;12.486;2023-06-26T02:48:41;17.00;99.90
12841;DHT22;6487;48.626;12.486;2023-06-26T02:51:11;17.10;99.90
12841;DHT22;6487;48.626;12.486;2023-06-26T02:53:39;17.10;99.90
12841;DHT22;6487;48.626;12.486;2023-06-26T02:56:07;17.10;99.90
12841;DHT22;6487;48.626;12.486;2023-06-26T02:58:38;17.10;99.90
12841;DHT22;6487;48.626;12.486;2023-06-26T03:01:09;17.10;99.90
12841;DHT22;6487;48.626;12.486;2023-06-26T03:03:38;17.00;99.90
12841;DHT22;6487;48.626;12.486;2023-06-26T03:06:08;16.90;99.90
12841;DHT22;6487;48.626;12.486;2023-06-26T03:08:38;16.90;99.90
12841;DHT22;6487;48.626;12.486;2023-06-26T03:11:07;16.80;99.90
12841;DHT22;6487;48.626;12.486;2023-06-26T03:13:36;16.80;99.90
12841;DHT22;6487;48.626;12.486;2023-06-26T03:16:07;16.80;99.90
12841;DHT22;6487;48.626;12.486;2023-06-26T03:18:36;16.70;99.90
12841;DHT22;6487;48.626;12.486;2023-06-26T03:21:04;16.80;99.90
12841;DHT22;6487;48.626;12.486;2023-06-26T03:23:32;16.60;99.90
12841;DHT22;6487;48.626;12.486;2023-06-26T03:26:02;16.70;99.90
12841;DHT22;6487;48.626;12.486;2023-06-26T03:28:33;16.70;99.90
12841;DHT22;6487;48.626;12.486;2023-06-26T03:31:02;16.70;99.90
12841;DHT22;6487;48.626;12.486;2023-06-26T03:33:30;16.70;99.90
12841;DHT22;6487;48.626;12.486;2023-06-26T03:35:58;16.70;99.90
12841;DHT22;6487;48.626;12.486;2023-06-26T03:38:27;16.70;99.90
12841;DHT22;6487;48.626;12.486;2023-06-26T03:40:55;16.70;99.90
12841;DHT22;6487;48.626;12.486;2023-06-26T03:43:25;16.70;99.90
12841;DHT22;6487;48.626;12.486;2023-06-26T03:45:53;16.70;99.90
12841;DHT22;6487;48.626;12.486;2023-06-26T03:48:22;16.70;99.90
12841;DHT22;6487;48.626;12.486;2023-06-26T03:50:53;16.70;99.90
12841;DHT22;6487;48.626;12.486;2023-06-26T03:53:21;16.70;99.90
12841;DHT22;6487;48.626;12.486;2023-06-26T03:55:50;16.70;99.90
12841;DHT22;6487;48.626;12.486;2023-06-26T03:58:18;16.80;99.90
12841;DHT22;6487;48.626;12.486;2023-06-26T04:00:48;16.80;99.90
12841;DHT22;6487;48.626;12.486;2023-06-26T04:03:18;16.80;99.90
12841;DHT22;6487;48.626;12.486;2023-06-26T04:05:49;16.80;99.90
12841;DHT22;6487;48.626;12.486;2023-06-26T04:08:20;16.90;99.90
12841;DHT22;6487;48.626;12.486;2023-06-26T04:10:48;16.80;99.90
12841;DHT22;6487;48.626;12.486;2023-06-26T04:13:18;16.80;99.90
12841;DHT22;6487;48.626;12.486;2023-06-26T04:15:48;16.90;99.90
12841;DHT22;6487;48.626;12.486;2023-06-26T04:18:19;16.90;99.90
12841;DHT22;6487;48.626;12.486;2023-06-26T04:21:09;16.80;99.90
12841;DHT22;6487;48.626;12.486;2023-06-26T04:23:39;16.90;99.90
12841;DHT22;6487;48.626;12.486;2023-06-26T04:26:08;16.90;99.90
12841;DHT22;6487;48.626;12.486;2023-06-26T04:28:41;16.90;99.90
12841;DHT22;6487;48.626;12.486;2023-06-26T04:31:11;16.90;99.90
12841;DHT22;6487;48.626;12.486;2023-06-26T04:33:40;17.00;99.90
12841;DHT22;6487;48.626;12.486;2023-06-26T04:36:09;17.00;99.90
12841;DHT22;6487;48.626;12.486;2023-06-26T04:38:41;17.10;99.90
12841;DHT22;6487;48.626;12.486;2023-06-26T04:41:09;17.10;99.90
12841;DHT22;6487;48.626;12.486;2023-06-26T04:43:37;17.10;99.90
12841;DHT22;6487;48.626;12.486;2023-06-26T04:46:06;17.20;99.90
12841;DHT22;6487;48.626;12.486;2023-06-26T04:48:38;17.20;99.90
12841;DHT22;6487;48.626;12.486;2023-06-26T04:51:06;17.20;99.90
12841;DHT22;6487;48.626;12.486;2023-06-26T04:53:35;17.30;99.90
12841;DHT22;6487;48.626;12.486;2023-06-26T04:56:03;17.30;99.90
12841;DHT22;6487;48.626;12.486;2023-06-26T04:58:34;17.30;99.90
12841;DHT22;6487;48.626;12.486;2023-06-26T05:01:03;17.30;99.90
12841;DHT22;6487;48.626;12.486;2023-06-26T05:03:37;17.30;99.90
12841;DHT22;6487;48.626;12.486;2023-06-26T05:06:06;17.40;99.90
12841;DHT22;6487;48.626;12.486;2023-06-26T05:08:35;17.50;99.90
12841;DHT22;6487;48.626;12.486;2023-06-26T05:11:04;17.50;99.90
12841;DHT22;6487;48.626;12.486;2023-06-26T05:13:32;17.60;99.90
12841;DHT22;6487;48.626;12.486;2023-06-26T05:16:04;17.60;99.90
12841;DHT22;6487;48.626;12.486;2023-06-26T05:18:32;17.70;99.90
12841;DHT22;6487;48.626;12.486;2023-06-26T05:21:03;17.80;99.90
12841;DHT22;6487;48.626;12.486;2023-06-26T05:23:32;17.90;99.90
12841;DHT22;6487;48.626;12.486;2023-06-26T05:26:02;18.00;99.90
12841;DHT22;6487;48.626;12.486;2023-06-26T05:28:31;18.00;99.90
12841;DHT22;6487;48.626;12.486;2023-06-26T05:31:06;18.10;99.90
12841;DHT22;6487;48.626;12.486;2023-06-26T05:33:35;18.20;99.90
12841;DHT22;6487;48.626;12.486;2023-06-26T05:36:07;18.20;99.90
12841;DHT22;6487;48.626;12.486;2023-06-26T05:38:37;18.20;99.90
12841;DHT22;6487;48.626;12.486;2023-06-26T05:41:06;18.40;99.90
12841;DHT22;6487;48.626;12.486;2023-06-26T05:43:35;18.40;99.90
12841;DHT22;6487;48.626;12.486;2023-06-26T05:46:03;18.50;99.90
12841;DHT22;6487;48.626;12.486;2023-06-26T05:48:31;18.60;99.90
12841;DHT22;6487;48.626;12.486;2023-06-26T05:51:01;18.70;99.90
12841;DHT22;6487;48.626;12.486;2023-06-26T05:53:32;18.80;99.90
12841;DHT22;6487;48.626;12.486;2023-06-26T05:56:01;19.00;99.90
12841;DHT22;6487;48.626;12.486;2023-06-26T05:58:30;19.00;99.90
12841;DHT22;6487;48.626;12.486;2023-06-26T06:00:59;19.20;99.90
12841;DHT22;6487;48.626;12.486;2023-06-26T06:03:27;19.30;99.90
12841;DHT22;6487;48.626;12.486;2023-06-26T06:05:56;19.40;99.90
12841;DHT22;6487;48.626;12.486;2023-06-26T06:08:24;19.50;99.90
12841;DHT22;6487;48.626;12.486;2023-06-26T06:10:54;19.60;99.90
12841;DHT22;6487;48.626;12.486;2023-06-26T06:13:27;19.80;99.90
12841;DHT22;6487;48.626;12.486;2023-06-26T06:15:56;20.00;99.90
12841;DHT22;6487;48.626;12.486;2023-06-26T06:18:26;20.10;99.90
12841;DHT22;6487;48.626;12.486;2023-06-26T06:20:54;20.30;99.90
12841;DHT22;6487;48.626;12.486;2023-06-26T06:23:23;20.40;99.90
12841;DHT22;6487;48.626;12.486;2023-06-26T06:25:51;20.60;99.90
12841;DHT22;6487;48.626;12.486;2023-06-26T06:28:21;20.80;99.90
12841;DHT22;6487;48.626;12.486;2023-06-26T06:30:50;20.90;99.90
12841;DHT22;6487;48.626;12.486;2023-06-26T06:33:19;21.10;99.90
12841;DHT22;6487;48.626;12.486;2023-06-26T06:35:48;21.30;99.90
12841;DHT22;6487;48.626;12.486;2023-06-26T06:38:17;21.40;99.90
12841;DHT22;6487;48.626;12.486;2023-06-26T06:40:45;21.50;99.90
12841;DHT22;6487;48.626;12.486;2023-06-26T06:43:15;21.70;99.90
12841;DHT22;6487;48.626;12.486;2023-06-26T06:45:44;21.80;99.90
12841;DHT22;6487;48.626;12.486;2023-06-26T06:48:13;21.90;99.90
12841;DHT22;6487;48.626;12.486;2023-06-26T06:50:42;22.00;99.90
12841;DHT22;6487;48.626;12.486;2023-06-26T06:53:10;22.10;99.90
12841;DHT22;6487;48.626;12.486;2023-06-26T06:55:39;22.20;99.90
12841;DHT22;6487;48.626;12.486;2023-06-26T06:58:07;22.40;99.90
12841;DHT22;6487;48.626;12.486;2023-06-26T07:00:37;22.70;99.90
12841;DHT22;6487;48.626;12.486;2023-06-26T07:03:06;22.80;99.90
12841;DHT22;6487;48.626;12.486;2023-06-26T07:05:34;23.00;99.80
12841;DHT22;6487;48.626;12.486;2023-06-26T07:08:03;23.10;99.30
12841;DHT22;6487;48.626;12.486;2023-06-26T07:10:31;23.20;99.00
12841;DHT22;6487;48.626;12.486;2023-06-26T07:13:00;23.40;98.70
12841;DHT22;6487;48.626;12.486;2023-06-26T07:15:29;23.60;98.80
12841;DHT22;6487;48.626;12.486;2023-06-26T07:17:59;23.70;98.00
12841;DHT22;6487;48.626;12.486;2023-06-26T07:20:27;24.00;97.30
12841;DHT22;6487;48.626;12.486;2023-06-26T07:22:55;24.10;97.20
12841;DHT22;6487;48.626;12.486;2023-06-26T07:25:24;24.30;97.40
12841;DHT22;6487;48.626;12.486;2023-06-26T07:27:53;24.50;97.30
12841;DHT22;6487;48.626;12.486;2023-06-26T07:30:21;24.50;97.40
12841;DHT22;6487;48.626;12.486;2023-06-26T07:32:50;24.80;97.40
12841;DHT22;6487;48.626;12.486;2023-06-26T07:35:20;24.90;96.50
12841;DHT22;6487;48.626;12.486;2023-06-26T07:37:49;25.00;96.40
12841;DHT22;6487;48.626;12.486;2023-06-26T07:40:17;25.10;96.00
12841;DHT22;6487;48.626;12.486;2023-06-26T07:42:45;25.40;94.70
12841;DHT22;6487;48.626;12.486;2023-06-26T07:45:14;25.60;95.10
12841;DHT22;6487;48.626;12.486;2023-06-26T07:47:42;25.80;95.40
12841;DHT22;6487;48.626;12.486;2023-06-26T07:50:11;25.80;92.70
12841;DHT22;6487;48.626;12.486;2023-06-26T07:52:44;25.90;92.30
12841;DHT22;6487;48.626;12.486;2023-06-26T07:55:12;26.10;94.20
12841;DHT22;6487;48.626;12.486;2023-06-26T07:57:40;26.40;93.00
12841;DHT22;6487;48.626;12.486;2023-06-26T08:00:10;26.50;93.10
12841;DHT22;6487;48.626;12.486;2023-06-26T08:02:39;26.60;93.10
12841;DHT22;6487;48.626;12.486;2023-06-26T08:05:07;26.90;90.60
12841;DHT22;6487;48.626;12.486;2023-06-26T08:07:36;26.80;87.20
12841;DHT22;6487;48.626;12.486;2023-06-26T08:10:09;26.90;87.20
12841;DHT22;6487;48.626;12.486;2023-06-26T08:12:38;26.70;81.00
12841;DHT22;6487;48.626;12.486;2023-06-26T08:15:09;26.50;84.50
12841;DHT22;6487;48.626;12.486;2023-06-26T08:17:38;26.70;85.00
12841;DHT22;6487;48.626;12.486;2023-06-26T08:20:07;26.90;81.90
12841;DHT22;6487;48.626;12.486;2023-06-26T08:22:37;27.00;80.20
12841;DHT22;6487;48.626;12.486;2023-06-26T08:25:08;27.00;81.00
12841;DHT22;6487;48.626;12.486;2023-06-26T08:27:36;27.30;81.60
12841;DHT22;6487;48.626;12.486;2023-06-26T08:30:06;27.60;85.30
12841;DHT22;6487;48.626;12.486;2023-06-26T08:32:35;27.50;77.90
12841;DHT22;6487;48.626;12.486;2023-06-26T08:35:05;27.60;77.30
12841;DHT22;6487;48.626;12.486;2023-06-26T08:37:37;27.70;77.90
12841;DHT22;6487;48.626;12.486;2023-06-26T08:40:10;27.90;77.40
12841;DHT22;6487;48.626;12.486;2023-06-26T08:42:40;28.00;77.10
12841;DHT22;6487;48.626;12.486;2023-06-26T08:45:08;27.90;74.10
12841;DHT22;6487;48.626;12.486;2023-06-26T08:47:37;27.90;75.70
12841;DHT22;6487;48.626;12.486;2023-06-26T08:50:15;28.10;76.60
12841;DHT22;6487;48.626;12.486;2023-06-26T08:52:50;28.40;75.80
12841;DHT22;6487;48.626;12.486;2023-06-26T08:55:23;28.70;76.60
12841;DHT22;6487;48.626;12.486;2023-06-26T08:57:54;29.00;76.20
12841;DHT22;6487;48.626;12.486;2023-06-26T09:00:23;29.20;76.60
12841;DHT22;6487;48.626;12.486;2023-06-26T09:02:51;29.30;75.80
12841;DHT22;6487;48.626;12.486;2023-06-26T09:05:20;29.30;75.00
12841;DHT22;6487;48.626;12.486;2023-06-26T09:07:48;29.00;68.20
12841;DHT22;6487;48.626;12.486;2023-06-26T09:10:26;29.30;72.40
12841;DHT22;6487;48.626;12.486;2023-06-26T09:12:55;29.30;73.00
12841;DHT22;6487;48.626;12.486;2023-06-26T09:15:24;29.70;74.40
12841;DHT22;6487;48.626;12.486;2023-06-26T09:17:56;29.60;69.70
12841;DHT22;6487;48.626;12.486;2023-06-26T09:20:28;29.80;69.50
12841;DHT22;6487;48.626;12.486;2023-06-26T09:22:57;29.60;67.80
12841;DHT22;6487;48.626;12.486;2023-06-26T09:25:27;29.80;67.70
12841;DHT22;6487;48.626;12.486;2023-06-26T09:27:56;30.00;68.40
12841;DHT22;6487;48.626;12.486;2023-06-26T09:30:25;30.20;70.00
12841;DHT22;6487;48.626;12.486;2023-06-26T09:32:53;30.40;65.50
12841;DHT22;6487;48.626;12.486;2023-06-26T09:35:22;30.50;67.90
12841;DHT22;6487;48.626;12.486;2023-06-26T09:37:52;30.70;70.50
12841;DHT22;6487;48.626;12.486;2023-06-26T09:40:20;30.80;67.10
12841;DHT22;6487;48.626;12.486;2023-06-26T09:42:50;31.00;67.80
12841;DHT22;6487;48.626;12.486;2023-06-26T09:45:19;31.10;64.00
12841;DHT22;6487;48.626;12.486;2023-06-26T09:47:48;31.40;68.00
12841;DHT22;6487;48.626;12.486;2023-06-26T09:50:23;31.50;64.10
12841;DHT22;6487;48.626;12.486;2023-06-26T09:52:54;31.60;63.70
12841;DHT22;6487;48.626;12.486;2023-06-26T09:55:24;31.70;61.30
12841;DHT22;6487;48.626;12.486;2023-06-26T09:57:57;31.60;59.00
12841;DHT22;6487;48.626;12.486;2023-06-26T10:00:30;31.40;60.20
12841;DHT22;6487;48.626;12.486;2023-06-26T10:03:00;31.60;62.70
12841;DHT22;6487;48.626;12.486;2023-06-26T10:05:29;31.40;59.50
12841;DHT22;6487;48.626;12.486;2023-06-26T10:07:58;31.60;60.30
12841;DHT22;6487;48.626;12.486;2023-06-26T10:10:27;31.80;62.10
12841;DHT22;6487;48.626;12.486;2023-06-26T10:13:03;31.90;62.20
12841;DHT22;6487;48.626;12.486;2023-06-26T10:15:36;31.70;57.80
12841;DHT22;6487;48.626;12.486;2023-06-26T10:18:06;31.60;59.00
12841;DHT22;6487;48.626;12.486;2023-06-26T10:20:34;31.50;57.80
12841;DHT22;6487;48.626;12.486;2023-06-26T10:23:05;31.70;60.20
12841;DHT22;6487;48.626;12.486;2023-06-26T10:25:37;31.90;63.30
12841;DHT22;6487;48.626;12.486;2023-06-26T10:28:11;32.10;62.00
12841;DHT22;6487;48.626;12.486;2023-06-26T10:30:41;32.30;62.90
12841;DHT22;6487;48.626;12.486;2023-06-26T10:33:11;32.30;56.90
12841;DHT22;6487;48.626;12.486;2023-06-26T10:35:43;31.90;56.80
12841;DHT22;6487;48.626;12.486;2023-06-26T10:38:16;31.80;55.90
12841;DHT22;6487;48.626;12.486;2023-06-26T10:40:45;31.90;57.90
12841;DHT22;6487;48.626;12.486;2023-06-26T10:43:17;31.90;56.70
12841;DHT22;6487;48.626;12.486;2023-06-26T10:45:47;32.30;60.00
12841;DHT22;6487;48.626;12.486;2023-06-26T10:48:19;32.10;58.50
12841;DHT22;6487;48.626;12.486;2023-06-26T10:50:50;32.30;58.60
12841;DHT22;6487;48.626;12.486;2023-06-26T10:53:23;32.40;57.50
12841;DHT22;6487;48.626;12.486;2023-06-26T10:55:59;32.60;61.90
12841;DHT22;6487;48.626;12.486;2023-06-26T10:58:34;32.90;59.60
12841;DHT22;6487;48.626;12.486;2023-06-26T11:01:20;32.80;57.10
12841;DHT22;6487;48.626;12.486;2023-06-26T11:04:03;33.00;57.90
12841;DHT22;6487;48.626;12.486;2023-06-26T11:06:33;33.00;56.80
12841;DHT22;6487;48.626;12.486;2023-06-26T11:09:07;33.20;59.20
12841;DHT22;6487;48.626;12.486;2023-06-26T11:11:57;33.10;57.20
12841;DHT22;6487;48.626;12.486;2023-06-26T11:14:31;33.30;57.30
12841;DHT22;6487;48.626;12.486;2023-06-26T11:17:03;33.60;59.10
12841;DHT22;6487;48.626;12.486;2023-06-26T11:19:32;33.60;56.80
12841;DHT22;6487;48.626;12.486;2023-06-26T11:22:04;33.80;57.10
12841;DHT22;6487;48.626;12.486;2023-06-26T11:24:33;33.90;57.90
12841;DHT22;6487;48.626;12.486;2023-06-26T11:27:03;33.90;56.00
12841;DHT22;6487;48.626;12.486;2023-06-26T11:29:34;33.90;55.50
12841;DHT22;6487;48.626;12.486;2023-06-26T11:32:04;33.90;55.40
12841;DHT22;6487;48.626;12.486;2023-06-26T11:34:34;34.10;57.80
12841;DHT22;6487;48.626;12.486;2023-06-26T11:37:04;34.30;57.10
12841;DHT22;6487;48.626;12.486;2023-06-26T11:39:35;34.40;58.50
12841;DHT22;6487;48.626;12.486;2023-06-26T11:42:05;34.50;58.70
12841;DHT22;6487;48.626;12.486;2023-06-26T11:44:40;34.40;53.00
12841;DHT22;6487;48.626;12.486;2023-06-26T11:47:15;34.40;55.90
12841;DHT22;6487;48.626;12.486;2023-06-26T11:49:44;34.50;55.80
12841;DHT22;6487;48.626;12.486;2023-06-26T11:52:16;34.60;55.10
12841;DHT22;6487;48.626;12.486;2023-06-26T11:54:44;34.50;54.70
12841;DHT22;6487;48.626;12.486;2023-06-26T11:57:14;34.50;54.90
12841;DHT22;6487;48.626;12.486;2023-06-26T11:59:50;34.70;55.80
12841;DHT22;6487;48.626;12.486;2023-06-26T12:02:18;34.90;54.80
12841;DHT22;6487;48.626;12.486;2023-06-26T12:04:47;34.80;52.70
12841;DHT22;6487;48.626;12.486;2023-06-26T12:07:19;34.70;55.80
12841;DHT22;6487;48.626;12.486;2023-06-26T12:09:49;34.80;55.90
12841;DHT22;6487;48.626;12.486;2023-06-26T12:12:18;34.50;55.00
12841;DHT22;6487;48.626;12.486;2023-06-26T12:14:51;34.60;56.50
12841;DHT22;6487;48.626;12.486;2023-06-26T12:17:23;34.40;53.20
12841;DHT22;6487;48.626;12.486;2023-06-26T12:19:52;34.40;54.30
12841;DHT22;6487;48.626;12.486;2023-06-26T12:22:20;34.30;52.30
12841;DHT22;6487;48.626;12.486;2023-06-26T12:24:49;34.10;52.60
12841;DHT22;6487;48.626;12.486;2023-06-26T12:27:18;34.10;52.80
12841;DHT22;6487;48.626;12.486;2023-06-26T12:29:51;34.10;52.20
12841;DHT22;6487;48.626;12.486;2023-06-26T12:32:24;34.20;53.60
12841;DHT22;6487;48.626;12.486;2023-06-26T12:34:57;34.20;52.90
12841;DHT22;6487;48.626;12.486;2023-06-26T12:37:25;34.10;51.60
12841;DHT22;6487;48.626;12.486;2023-06-26T12:39:57;34.10;51.20
12841;DHT22;6487;48.626;12.486;2023-06-26T12:42:34;34.10;53.30
12841;DHT22;6487;48.626;12.486;2023-06-26T12:45:12;34.10;53.70
12841;DHT22;6487;48.626;12.486;2023-06-26T12:48:07;33.90;52.40
12841;DHT22;6487;48.626;12.486;2023-06-26T12:50:45;33.90;55.20
12841;DHT22;6487;48.626;12.486;2023-06-26T12:53:15;34.00;55.50
12841;DHT22;6487;48.626;12.486;2023-06-26T12:55:43;33.90;53.50
12841;DHT22;6487;48.626;12.486;2023-06-26T12:58:11;33.90;53.80
12841;DHT22;6487;48.626;12.486;2023-06-26T13:00:41;33.80;54.00
12841;DHT22;6487;48.626;12.486;2023-06-26T13:03:10;33.80;53.60
12841;DHT22;6487;48.626;12.486;2023-06-26T13:05:38;33.90;53.60
12841;DHT22;6487;48.626;12.486;2023-06-26T13:08:09;34.20;54.30
12841;DHT22;6487;48.626;12.486;2023-06-26T13:10:41;34.40;56.40
12841;DHT22;6487;48.626;12.486;2023-06-26T13:13:10;34.50;54.10
12841;DHT22;6487;48.626;12.486;2023-06-26T13:15:38;34.50;54.80
12841;DHT22;6487;48.626;12.486;2023-06-26T13:18:08;34.20;55.40
12841;DHT22;6487;48.626;12.486;2023-06-26T13:20:40;34.30;55.40
12841;DHT22;6487;48.626;12.486;2023-06-26T13:23:15;34.30;56.60
12841;DHT22;6487;48.626;12.486;2023-06-26T13:25:45;34.40;56.50
12841;DHT22;6487;48.626;12.486;2023-06-26T13:28:15;34.40;55.80
12841;DHT22;6487;48.626;12.486;2023-06-26T13:30:45;34.50;55.80
12841;DHT22;6487;48.626;12.486;2023-06-26T13:33:14;34.30;54.20
12841;DHT22;6487;48.626;12.486;2023-06-26T13:35:45;34.20;53.40
12841;DHT22;6487;48.626;12.486;2023-06-26T13:38:13;34.20;53.90
12841;DHT22;6487;48.626;12.486;2023-06-26T13:40:53;34.00;54.90
12841;DHT22;6487;48.626;12.486;2023-06-26T13:43:23;34.10;55.20
12841;DHT22;6487;48.626;12.486;2023-06-26T13:45:54;33.90;54.90
12841;DHT22;6487;48.626;12.486;2023-06-26T13:48:26;33.90;54.70
12841;DHT22;6487;48.626;12.486;2023-06-26T13:50:59;33.90;55.00
12841;DHT22;6487;48.626;12.486;2023-06-26T13:53:27;34.00;55.80
12841;DHT22;6487;48.626;12.486;2023-06-26T13:55:57;34.20;57.30
12841;DHT22;6487;48.626;12.486;2023-06-26T13:58:28;34.10;53.20
12841;DHT22;6487;48.626;12.486;2023-06-26T14:01:00;33.90;52.40
12841;DHT22;6487;48.626;12.486;2023-06-26T14:03:29;34.00;53.00
12841;DHT22;6487;48.626;12.486;2023-06-26T14:05:57;34.30;53.20
12841;DHT22;6487;48.626;12.486;2023-06-26T14:08:36;34.30;51.90
12841;DHT22;6487;48.626;12.486;2023-06-26T14:11:07;34.30;51.30
12841;DHT22;6487;48.626;12.486;2023-06-26T14:13:35;34.30;53.40
12841;DHT22;6487;48.626;12.486;2023-06-26T14:16:11;34.20;51.90
12841;DHT22;6487;48.626;12.486;2023-06-26T14:18:40;33.90;51.80
12841;DHT22;6487;48.626;12.486;2023-06-26T14:21:08;34.00;51.30
12841;DHT22;6487;48.626;12.486;2023-06-26T14:23:37;34.00;52.00
12841;DHT22;6487;48.626;12.486;2023-06-26T14:26:08;34.00;52.00
12841;DHT22;6487;48.626;12.486;2023-06-26T14:28:39;34.10;52.50
12841;DHT22;6487;48.626;12.486;2023-06-26T14:31:08;34.00;51.10
12841;DHT22;6487;48.626;12.486;2023-06-26T14:33:37;34.30;52.00
12841;DHT22;6487;48.626;12.486;2023-06-26T14:36:07;34.20;54.80
12841;DHT22;6487;48.626;12.486;2023-06-26T14:38:38;34.20;54.00
12841;DHT22;6487;48.626;12.486;2023-06-26T14:41:07;34.10;52.60
12841;DHT22;6487;48.626;12.486;2023-06-26T14:43:36;33.90;52.60
12841;DHT22;6487;48.626;12.486;2023-06-26T14:46:05;34.00;53.50
12841;DHT22;6487;48.626;12.486;2023-06-26T14:48:34;34.10;53.60
12841;DHT22;6487;48.626;12.486;2023-06-26T14:51:06;33.90;52.00
12841;DHT22;6487;48.626;12.486;2023-06-26T14:53:38;33.80;52.00
12841;DHT22;6487;48.626;12.486;2023-06-26T14:56:09;33.80;53.50
12841;DHT22;6487;48.626;12.486;2023-06-26T14:58:37;33.80;54.30
12841;DHT22;6487;48.626;12.486;2023-06-26T15:01:05;33.70;53.20
12841;DHT22;6487;48.626;12.486;2023-06-26T15:03:37;33.70;54.20
12841;DHT22;6487;48.626;12.486;2023-06-26T15:06:07;33.80;54.20
12841;DHT22;6487;48.626;12.486;2023-06-26T15:08:35;33.70;54.00
12841;DHT22;6487;48.626;12.486;2023-06-26T15:11:04;33.80;53.80
12841;DHT22;6487;48.626;12.486;2023-06-26T15:13:32;33.80;54.60
12841;DHT22;6487;48.626;12.486;2023-06-26T15:16:01;33.60;55.50
12841;DHT22;6487;48.626;12.486;2023-06-26T15:18:31;33.40;54.10
12841;DHT22;6487;48.626;12.486;2023-06-26T15:20:59;33.40;55.20
12841;DHT22;6487;48.626;12.486;2023-06-26T15:23:33;33.60;55.60
12841;DHT22;6487;48.626;12.486;2023-06-26T15:26:01;33.70;54.90
12841;DHT22;6487;48.626;12.486;2023-06-26T15:28:33;33.70;56.30
12841;DHT22;6487;48.626;12.486;2023-06-26T15:31:04;33.70;56.60
12841;DHT22;6487;48.626;12.486;2023-06-26T15:33:32;33.70;56.40
12841;DHT22;6487;48.626;12.486;2023-06-26T15:36:06;33.80;56.20
12841;DHT22;6487;48.626;12.486;2023-06-26T15:38:38;33.70;54.60
12841;DHT22;6487;48.626;12.486;2023-06-26T15:41:10;33.70;57.50
12841;DHT22;6487;48.626;12.486;2023-06-26T15:43:38;33.70;55.70
12841;DHT22;6487;48.626;12.486;2023-06-26T15:46:07;33.60;56.00
12841;DHT22;6487;48.626;12.486;2023-06-26T15:48:36;33.70;55.50